Bill Jr — WCO6976 — position and weather

sailwx.info

Track history (hours):
 
Tides and Currents Weather Stations Pressure Air Temp Water Temp Dewpoint Dewpoint Depression Visibility Wind Speed Wind Dir Waves Ship Positions

Bill Jr

Owner: DAWSON VESSELS INC, MOBILE, AL. More information available from US FCC via Universal Licensing System and Coast Guard Vessel Documentation Center.

Last reported at 2015-Jan-29 14:29 UTC. Time now 2015-Feb-02 01:49 UTC.
Position N 30°03' W 090°35'.

Length 21 m.

MMSI: 366976750.

Date/timePositionNaut miles runAvg speedWind from/ knotsBaromVisibWave heightAir tempDewpointWater temp
2015-Jan-29 14:29N 30°03' W 090°35'1 0.4
2015-Jan-29 12:21N 30°03' W 090°34'0 0.0
2015-Jan-29 11:16N 30°03' W 090°34'0 0.5
2015-Jan-29 10:32N 30°03' W 090°35'0 0.1
2015-Jan-29 09:30N 30°03' W 090°34'1 1.4
2015-Jan-29 08:33N 30°03' W 090°33'1 0.6
2015-Jan-29 07:13N 30°03' W 090°34'1 1.1
2015-Jan-29 06:33N 30°03' W 090°35'0 0.4
2015-Jan-29 05:29N 30°03' W 090°34'0 0.0
2015-Jan-29 04:33N 30°03' W 090°34'0 0.0
2015-Jan-28 13:23N 30°03' W 090°34'1 0.3
2015-Jan-28 11:18N 30°03' W 090°35'17 0.6
2015-Jan-27 08:25N 29°58' W 090°17'6 0.8
2015-Jan-27 00:21N 29°57' W 090°10'1 0.1
2015-Jan-26 00:06N 29°57' W 090°09'1 1.4
2015-Jan-25 23:33N 29°56' W 090°09'  
Track history (hours):
 
Tides and Currents Weather Stations Pressure Air Temp Water Temp Dewpoint Dewpoint Depression Visibility Wind Speed Wind Dir Waves Ship Positions

Bill Jr

Owner: DAWSON VESSELS INC, MOBILE, AL. More information available from US FCC via Universal Licensing System and Coast Guard Vessel Documentation Center.

Last reported at 2015-Jan-29 14:29 UTC. Time now 2015-Feb-02 01:49 UTC.
Position N 30°03' W 090°35'.

Length 21 m.

MMSI: 366976750.

Date/timePositionNaut miles runAvg speedWind from/ knotsBaromVisibWave heightAir tempDewpointWater temp
2015-Jan-29 14:29N 30°03' W 090°35'1 0.4
2015-Jan-29 12:21N 30°03' W 090°34'0 0.0
2015-Jan-29 11:16N 30°03' W 090°34'0 0.5
2015-Jan-29 10:32N 30°03' W 090°35'0 0.1
2015-Jan-29 09:30N 30°03' W 090°34'1 1.4
2015-Jan-29 08:33N 30°03' W 090°33'1 0.6
2015-Jan-29 07:13N 30°03' W 090°34'1 1.1
2015-Jan-29 06:33N 30°03' W 090°35'0 0.4
2015-Jan-29 05:29N 30°03' W 090°34'0 0.0
2015-Jan-29 04:33N 30°03' W 090°34'0 0.0
2015-Jan-28 13:23N 30°03' W 090°34'1 0.3
2015-Jan-28 11:18N 30°03' W 090°35'17 0.6
2015-Jan-27 08:25N 29°58' W 090°17'6 0.8
2015-Jan-27 00:21N 29°57' W 090°10'1 0.1
2015-Jan-26 00:06N 29°57' W 090°09'1 1.4
2015-Jan-25 23:33N 29°56' W 090°09'  

Dump ship's entire track history